Cottage Grove, Tennessee
Current Conditions -  °F | °C
As of 10:35 PM on Monday 20 Oct 2014 (Local Time) from KPHT Reporting Station
Scattered Clouds Scattered Clouds  
Wind Chill: 13°   Ceiling: Unl
Heat Index: 13°   Visibility: 10mi
Dew Point: 10°   Wind: 5mph
Humidity: 82%   Direction: 240°WSW
Pressure: 30.02"   Gusts: NA
Location:  36.38°N, 88.48°W
Report Text: KPHT 210335Z AUTO 24004KT 10SM FEW050 SCT070 13/10 A3002 RMK
Loading
Personal Weather Stations






























Interactive Weather Map
Tropical Storm Tracking
New forecast layout! Learn more

10-Day Weather Forecast

Advertisements
Track Severe Weather on mobile